sensor_id;sensor_type;location;lat;lon;timestamp;temperature;humidity
4647;DHT22;2336;47.822;7.564;2023-06-22T00:00:50;20.80;99.90
4647;DHT22;2336;47.822;7.564;2023-06-22T00:03:18;20.80;99.90
4647;DHT22;2336;47.822;7.564;2023-06-22T00:05:45;20.70;99.90
4647;DHT22;2336;47.822;7.564;2023-06-22T00:08:12;20.70;99.90
4647;DHT22;2336;47.822;7.564;2023-06-22T00:10:39;20.70;99.90
4647;DHT22;2336;47.822;7.564;2023-06-22T00:13:07;20.70;99.90
4647;DHT22;2336;47.822;7.564;2023-06-22T00:15:34;20.70;99.90
4647;DHT22;2336;47.822;7.564;2023-06-22T00:18:03;20.60;99.90
4647;DHT22;2336;47.822;7.564;2023-06-22T00:20:29;20.60;99.90
4647;DHT22;2336;47.822;7.564;2023-06-22T00:22:57;20.60;99.90
4647;DHT22;2336;47.822;7.564;2023-06-22T00:25:25;20.50;99.90
4647;DHT22;2336;47.822;7.564;2023-06-22T00:27:51;20.50;99.90
4647;DHT22;2336;47.822;7.564;2023-06-22T00:30:18;20.50;99.90
4647;DHT22;2336;47.822;7.564;2023-06-22T00:32:45;20.50;99.90
4647;DHT22;2336;47.822;7.564;2023-06-22T00:35:13;20.50;99.90
4647;DHT22;2336;47.822;7.564;2023-06-22T00:37:40;20.50;99.90
4647;DHT22;2336;47.822;7.564;2023-06-22T00:40:08;20.40;99.90
4647;DHT22;2336;47.822;7.564;2023-06-22T00:42:37;20.30;99.90
4647;DHT22;2336;47.822;7.564;2023-06-22T00:45:05;20.30;99.90
4647;DHT22;2336;47.822;7.564;2023-06-22T00:47:34;20.30;99.90
4647;DHT22;2336;47.822;7.564;2023-06-22T00:50:03;20.30;99.90
4647;DHT22;2336;47.822;7.564;2023-06-22T00:52:33;20.30;99.90
4647;DHT22;2336;47.822;7.564;2023-06-22T00:55:02;20.30;99.90
4647;DHT22;2336;47.822;7.564;2023-06-22T00:57:29;20.30;99.90
4647;DHT22;2336;47.822;7.564;2023-06-22T00:59:56;20.30;99.90
4647;DHT22;2336;47.822;7.564;2023-06-22T01:02:23;20.30;99.90
4647;DHT22;2336;47.822;7.564;2023-06-22T01:04:50;20.40;99.90
4647;DHT22;2336;47.822;7.564;2023-06-22T01:07:27;20.30;99.90
4647;DHT22;2336;47.822;7.564;2023-06-22T01:10:02;20.30;99.90
4647;DHT22;2336;47.822;7.564;2023-06-22T01:12:32;20.30;99.90
4647;DHT22;2336;47.822;7.564;2023-06-22T01:15:07;20.30;99.90
4647;DHT22;2336;47.822;7.564;2023-06-22T01:17:36;20.30;99.90
4647;DHT22;2336;47.822;7.564;2023-06-22T01:20:07;20.20;99.90
4647;DHT22;2336;47.822;7.564;2023-06-22T01:22:46;20.20;99.90
4647;DHT22;2336;47.822;7.564;2023-06-22T01:25:20;20.10;99.90
4647;DHT22;2336;47.822;7.564;2023-06-22T01:27:58;20.10;99.90
4647;DHT22;2336;47.822;7.564;2023-06-22T01:30:31;20.10;99.90
4647;DHT22;2336;47.822;7.564;2023-06-22T01:33:00;20.00;99.90
4647;DHT22;2336;47.822;7.564;2023-06-22T01:35:28;20.00;99.90
4647;DHT22;2336;47.822;7.564;2023-06-22T01:37:56;19.90;99.90
4647;DHT22;2336;47.822;7.564;2023-06-22T01:40:23;19.90;99.90
4647;DHT22;2336;47.822;7.564;2023-06-22T01:42:51;19.90;99.90
4647;DHT22;2336;47.822;7.564;2023-06-22T01:45:18;19.80;99.90
4647;DHT22;2336;47.822;7.564;2023-06-22T01:47:47;19.70;99.90
4647;DHT22;2336;47.822;7.564;2023-06-22T01:50:14;19.70;99.90
4647;DHT22;2336;47.822;7.564;2023-06-22T01:52:40;19.70;99.90
4647;DHT22;2336;47.822;7.564;2023-06-22T01:55:08;19.70;99.90
4647;DHT22;2336;47.822;7.564;2023-06-22T01:57:35;19.70;99.90
4647;DHT22;2336;47.822;7.564;2023-06-22T02:00:04;19.70;99.90
4647;DHT22;2336;47.822;7.564;2023-06-22T02:02:38;19.60;99.90
4647;DHT22;2336;47.822;7.564;2023-06-22T02:05:10;19.60;99.90
4647;DHT22;2336;47.822;7.564;2023-06-22T02:07:42;19.60;99.90
4647;DHT22;2336;47.822;7.564;2023-06-22T02:10:14;19.60;99.90
4647;DHT22;2336;47.822;7.564;2023-06-22T02:12:43;19.60;99.90
4647;DHT22;2336;47.822;7.564;2023-06-22T02:15:11;19.60;99.90
4647;DHT22;2336;47.822;7.564;2023-06-22T02:17:39;19.60;99.90
4647;DHT22;2336;47.822;7.564;2023-06-22T02:20:14;19.50;99.90
4647;DHT22;2336;47.822;7.564;2023-06-22T02:22:41;19.50;99.90
4647;DHT22;2336;47.822;7.564;2023-06-22T02:25:08;19.50;99.90
4647;DHT22;2336;47.822;7.564;2023-06-22T02:27:34;19.40;99.90
4647;DHT22;2336;47.822;7.564;2023-06-22T02:30:01;19.40;99.90
4647;DHT22;2336;47.822;7.564;2023-06-22T02:32:28;19.40;99.90
4647;DHT22;2336;47.822;7.564;2023-06-22T02:34:55;19.40;99.90
4647;DHT22;2336;47.822;7.564;2023-06-22T02:37:23;19.40;99.90
4647;DHT22;2336;47.822;7.564;2023-06-22T02:39:50;19.40;99.90
4647;DHT22;2336;47.822;7.564;2023-06-22T02:42:17;19.40;99.90
4647;DHT22;2336;47.822;7.564;2023-06-22T02:44:46;19.30;99.90
4647;DHT22;2336;47.822;7.564;2023-06-22T02:47:12;19.40;99.90
4647;DHT22;2336;47.822;7.564;2023-06-22T02:49:39;19.40;99.90
4647;DHT22;2336;47.822;7.564;2023-06-22T02:52:07;19.30;99.90
4647;DHT22;2336;47.822;7.564;2023-06-22T02:54:35;19.40;99.90
4647;DHT22;2336;47.822;7.564;2023-06-22T02:57:02;19.40;99.90
4647;DHT22;2336;47.822;7.564;2023-06-22T02:59:29;19.40;99.90
4647;DHT22;2336;47.822;7.564;2023-06-22T03:01:55;19.40;99.90
4647;DHT22;2336;47.822;7.564;2023-06-22T03:04:22;19.30;99.90
4647;DHT22;2336;47.822;7.564;2023-06-22T03:06:49;19.40;99.90
4647;DHT22;2336;47.822;7.564;2023-06-22T03:09:17;19.40;99.90
4647;DHT22;2336;47.822;7.564;2023-06-22T03:11:45;19.40;99.90
4647;DHT22;2336;47.822;7.564;2023-06-22T03:14:11;19.40;99.90
4647;DHT22;2336;47.822;7.564;2023-06-22T03:16:38;19.30;99.90
4647;DHT22;2336;47.822;7.564;2023-06-22T03:19:06;19.30;99.90
4647;DHT22;2336;47.822;7.564;2023-06-22T03:21:32;19.20;99.90
4647;DHT22;2336;47.822;7.564;2023-06-22T03:23:59;19.20;99.90
4647;DHT22;2336;47.822;7.564;2023-06-22T03:26:26;19.20;99.90
4647;DHT22;2336;47.822;7.564;2023-06-22T03:28:54;19.20;99.90
4647;DHT22;2336;47.822;7.564;2023-06-22T03:31:21;19.20;99.90
4647;DHT22;2336;47.822;7.564;2023-06-22T03:33:48;19.10;99.90
4647;DHT22;2336;47.822;7.564;2023-06-22T03:36:15;19.10;99.90
4647;DHT22;2336;47.822;7.564;2023-06-22T03:38:44;19.10;99.90
4647;DHT22;2336;47.822;7.564;2023-06-22T03:41:11;19.10;99.90
4647;DHT22;2336;47.822;7.564;2023-06-22T03:43:38;19.10;99.90
4647;DHT22;2336;47.822;7.564;2023-06-22T03:46:06;19.10;99.90
4647;DHT22;2336;47.822;7.564;2023-06-22T03:48:33;19.10;99.90
4647;DHT22;2336;47.822;7.564;2023-06-22T03:51:00;19.00;99.90
4647;DHT22;2336;47.822;7.564;2023-06-22T03:53:28;19.00;99.90
4647;DHT22;2336;47.822;7.564;2023-06-22T03:55:56;19.10;99.90
4647;DHT22;2336;47.822;7.564;2023-06-22T03:58:22;19.10;99.90
4647;DHT22;2336;47.822;7.564;2023-06-22T04:00:51;19.10;99.90
4647;DHT22;2336;47.822;7.564;2023-06-22T04:03:19;19.10;99.90
4647;DHT22;2336;47.822;7.564;2023-06-22T04:05:46;19.20;99.90
4647;DHT22;2336;47.822;7.564;2023-06-22T04:08:14;19.10;99.90
4647;DHT22;2336;47.822;7.564;2023-06-22T04:10:41;19.20;99.90
4647;DHT22;2336;47.822;7.564;2023-06-22T04:13:07;19.20;99.90
4647;DHT22;2336;47.822;7.564;2023-06-22T04:15:34;19.20;99.90
4647;DHT22;2336;47.822;7.564;2023-06-22T04:18:01;19.30;99.90
4647;DHT22;2336;47.822;7.564;2023-06-22T04:20:30;19.30;99.90
4647;DHT22;2336;47.822;7.564;2023-06-22T04:22:57;19.30;99.90
4647;DHT22;2336;47.822;7.564;2023-06-22T04:25:24;19.20;99.90
4647;DHT22;2336;47.822;7.564;2023-06-22T04:27:51;19.20;99.90
4647;DHT22;2336;47.822;7.564;2023-06-22T04:30:18;19.20;99.90
4647;DHT22;2336;47.822;7.564;2023-06-22T04:32:44;19.20;99.90
4647;DHT22;2336;47.822;7.564;2023-06-22T04:35:21;19.30;99.90
4647;DHT22;2336;47.822;7.564;2023-06-22T04:37:50;19.30;99.90
4647;DHT22;2336;47.822;7.564;2023-06-22T04:40:21;19.40;99.90
4647;DHT22;2336;47.822;7.564;2023-06-22T04:42:47;19.50;99.90
4647;DHT22;2336;47.822;7.564;2023-06-22T04:45:18;19.60;99.90
4647;DHT22;2336;47.822;7.564;2023-06-22T04:47:45;19.60;99.90
4647;DHT22;2336;47.822;7.564;2023-06-22T04:50:12;19.70;99.90
4647;DHT22;2336;47.822;7.564;2023-06-22T04:52:39;19.70;99.90
4647;DHT22;2336;47.822;7.564;2023-06-22T04:55:08;19.70;99.90
4647;DHT22;2336;47.822;7.564;2023-06-22T04:57:34;19.80;99.90
4647;DHT22;2336;47.822;7.564;2023-06-22T05:00:06;19.80;99.90
4647;DHT22;2336;47.822;7.564;2023-06-22T05:02:43;19.90;99.90
4647;DHT22;2336;47.822;7.564;2023-06-22T05:05:11;19.90;99.90
4647;DHT22;2336;47.822;7.564;2023-06-22T05:07:41;19.90;99.90
4647;DHT22;2336;47.822;7.564;2023-06-22T05:10:11;20.00;99.90
4647;DHT22;2336;47.822;7.564;2023-06-22T05:12:38;20.00;99.90
4647;DHT22;2336;47.822;7.564;2023-06-22T05:15:06;20.10;99.90
4647;DHT22;2336;47.822;7.564;2023-06-22T05:17:33;20.10;99.90
4647;DHT22;2336;47.822;7.564;2023-06-22T05:20:00;20.10;99.90
4647;DHT22;2336;47.822;7.564;2023-06-22T05:22:27;20.20;99.90
4647;DHT22;2336;47.822;7.564;2023-06-22T05:24:53;20.20;99.90
4647;DHT22;2336;47.822;7.564;2023-06-22T05:27:21;20.30;99.90
4647;DHT22;2336;47.822;7.564;2023-06-22T05:29:48;20.30;99.90
4647;DHT22;2336;47.822;7.564;2023-06-22T05:32:15;20.30;99.90
4647;DHT22;2336;47.822;7.564;2023-06-22T05:34:42;20.40;99.90
4647;DHT22;2336;47.822;7.564;2023-06-22T05:37:08;20.40;99.90
4647;DHT22;2336;47.822;7.564;2023-06-22T05:39:36;20.50;99.90
4647;DHT22;2336;47.822;7.564;2023-06-22T05:42:04;20.50;99.90
4647;DHT22;2336;47.822;7.564;2023-06-22T05:44:32;20.60;99.90
4647;DHT22;2336;47.822;7.564;2023-06-22T05:47:00;20.60;99.90
4647;DHT22;2336;47.822;7.564;2023-06-22T05:49:26;20.60;99.90
4647;DHT22;2336;47.822;7.564;2023-06-22T05:51:55;20.70;99.90
4647;DHT22;2336;47.822;7.564;2023-06-22T05:54:22;20.70;99.90
4647;DHT22;2336;47.822;7.564;2023-06-22T05:56:48;20.70;99.90
4647;DHT22;2336;47.822;7.564;2023-06-22T05:59:15;20.80;99.90
4647;DHT22;2336;47.822;7.564;2023-06-22T06:01:43;20.80;99.90
4647;DHT22;2336;47.822;7.564;2023-06-22T06:04:10;20.80;99.90
4647;DHT22;2336;47.822;7.564;2023-06-22T06:06:36;20.80;99.90
4647;DHT22;2336;47.822;7.564;2023-06-22T06:09:03;20.80;99.90
4647;DHT22;2336;47.822;7.564;2023-06-22T06:11:30;20.80;99.90
4647;DHT22;2336;47.822;7.564;2023-06-22T06:13:57;20.90;99.90
4647;DHT22;2336;47.822;7.564;2023-06-22T06:16:24;20.80;99.90
4647;DHT22;2336;47.822;7.564;2023-06-22T06:18:52;20.90;99.90
4647;DHT22;2336;47.822;7.564;2023-06-22T06:21:21;20.90;99.90
4647;DHT22;2336;47.822;7.564;2023-06-22T06:23:48;21.00;99.90
4647;DHT22;2336;47.822;7.564;2023-06-22T06:26:14;21.00;99.90
4647;DHT22;2336;47.822;7.564;2023-06-22T06:28:42;21.20;99.90
4647;DHT22;2336;47.822;7.564;2023-06-22T06:31:09;21.40;99.90
4647;DHT22;2336;47.822;7.564;2023-06-22T06:33:37;21.60;99.90
4647;DHT22;2336;47.822;7.564;2023-06-22T06:36:05;21.60;99.90
4647;DHT22;2336;47.822;7.564;2023-06-22T06:38:33;21.70;99.90
4647;DHT22;2336;47.822;7.564;2023-06-22T06:41:00;21.70;99.90
4647;DHT22;2336;47.822;7.564;2023-06-22T06:43:27;21.70;99.90
4647;DHT22;2336;47.822;7.564;2023-06-22T06:45:54;21.70;99.90
4647;DHT22;2336;47.822;7.564;2023-06-22T06:48:20;21.70;99.90
4647;DHT22;2336;47.822;7.564;2023-06-22T06:50:47;21.80;99.90
4647;DHT22;2336;47.822;7.564;2023-06-22T06:53:15;21.90;99.90
4647;DHT22;2336;47.822;7.564;2023-06-22T06:55:42;21.90;99.90
4647;DHT22;2336;47.822;7.564;2023-06-22T06:58:10;22.00;99.90
4647;DHT22;2336;47.822;7.564;2023-06-22T07:00:38;21.90;99.90
4647;DHT22;2336;47.822;7.564;2023-06-22T07:03:05;21.80;99.90
4647;DHT22;2336;47.822;7.564;2023-06-22T07:05:32;21.80;99.90
4647;DHT22;2336;47.822;7.564;2023-06-22T07:07:59;21.80;99.90
4647;DHT22;2336;47.822;7.564;2023-06-22T07:10:27;21.70;99.90
4647;DHT22;2336;47.822;7.564;2023-06-22T07:12:54;21.70;99.90
4647;DHT22;2336;47.822;7.564;2023-06-22T07:15:22;21.70;99.90
4647;DHT22;2336;47.822;7.564;2023-06-22T07:17:49;21.80;99.90
4647;DHT22;2336;47.822;7.564;2023-06-22T07:20:16;21.70;99.90
4647;DHT22;2336;47.822;7.564;2023-06-22T07:22:43;21.80;99.90
4647;DHT22;2336;47.822;7.564;2023-06-22T07:25:11;21.80;99.90
4647;DHT22;2336;47.822;7.564;2023-06-22T07:27:44;21.90;99.90
4647;DHT22;2336;47.822;7.564;2023-06-22T07:30:12;22.10;99.90
4647;DHT22;2336;47.822;7.564;2023-06-22T07:32:39;22.20;99.90
4647;DHT22;2336;47.822;7.564;2023-06-22T07:35:07;22.30;99.90
4647;DHT22;2336;47.822;7.564;2023-06-22T07:37:33;22.40;99.90
4647;DHT22;2336;47.822;7.564;2023-06-22T07:40:00;22.50;99.90
4647;DHT22;2336;47.822;7.564;2023-06-22T07:42:30;22.60;99.90
4647;DHT22;2336;47.822;7.564;2023-06-22T07:44:59;22.70;99.90
4647;DHT22;2336;47.822;7.564;2023-06-22T07:47:28;22.80;99.90
4647;DHT22;2336;47.822;7.564;2023-06-22T07:49:54;22.90;99.90
4647;DHT22;2336;47.822;7.564;2023-06-22T07:52:23;23.00;99.90
4647;DHT22;2336;47.822;7.564;2023-06-22T07:54:50;23.20;99.90
4647;DHT22;2336;47.822;7.564;2023-06-22T07:57:17;23.20;99.90
4647;DHT22;2336;47.822;7.564;2023-06-22T07:59:44;23.30;99.90
4647;DHT22;2336;47.822;7.564;2023-06-22T08:02:12;23.30;99.90
4647;DHT22;2336;47.822;7.564;2023-06-22T08:04:39;23.30;99.90
4647;DHT22;2336;47.822;7.564;2023-06-22T08:07:06;23.40;99.90
4647;DHT22;2336;47.822;7.564;2023-06-22T08:09:33;23.40;99.90
4647;DHT22;2336;47.822;7.564;2023-06-22T08:12:00;23.50;99.90
4647;DHT22;2336;47.822;7.564;2023-06-22T08:14:27;23.60;99.90
4647;DHT22;2336;47.822;7.564;2023-06-22T08:16:54;23.60;99.90
4647;DHT22;2336;47.822;7.564;2023-06-22T08:19:22;23.70;99.90
4647;DHT22;2336;47.822;7.564;2023-06-22T08:21:49;23.80;99.90
4647;DHT22;2336;47.822;7.564;2023-06-22T08:24:15;24.00;99.90
4647;DHT22;2336;47.822;7.564;2023-06-22T08:26:42;24.20;99.90
4647;DHT22;2336;47.822;7.564;2023-06-22T08:29:09;24.30;99.90
4647;DHT22;2336;47.822;7.564;2023-06-22T08:31:36;24.50;99.90
4647;DHT22;2336;47.822;7.564;2023-06-22T08:34:02;24.60;99.90
4647;DHT22;2336;47.822;7.564;2023-06-22T08:36:31;24.60;99.90
4647;DHT22;2336;47.822;7.564;2023-06-22T08:38:58;24.70;99.90
4647;DHT22;2336;47.822;7.564;2023-06-22T08:41:28;24.90;99.90
4647;DHT22;2336;47.822;7.564;2023-06-22T08:43:54;24.90;99.90
4647;DHT22;2336;47.822;7.564;2023-06-22T08:46:22;25.00;99.90
4647;DHT22;2336;47.822;7.564;2023-06-22T08:48:55;25.00;99.90
4647;DHT22;2336;47.822;7.564;2023-06-22T08:51:22;25.00;99.90
4647;DHT22;2336;47.822;7.564;2023-06-22T08:53:50;25.10;99.90
4647;DHT22;2336;47.822;7.564;2023-06-22T08:56:17;25.10;99.90
4647;DHT22;2336;47.822;7.564;2023-06-22T08:58:44;25.10;99.90
4647;DHT22;2336;47.822;7.564;2023-06-22T09:01:11;25.20;99.90
4647;DHT22;2336;47.822;7.564;2023-06-22T09:03:37;25.30;99.90
4647;DHT22;2336;47.822;7.564;2023-06-22T09:06:04;25.30;99.90
4647;DHT22;2336;47.822;7.564;2023-06-22T09:08:31;25.30;99.90
4647;DHT22;2336;47.822;7.564;2023-06-22T09:10:59;25.40;99.90
4647;DHT22;2336;47.822;7.564;2023-06-22T09:13:26;25.40;99.90
4647;DHT22;2336;47.822;7.564;2023-06-22T09:15:52;25.50;99.90
4647;DHT22;2336;47.822;7.564;2023-06-22T09:18:19;25.60;99.90
4647;DHT22;2336;47.822;7.564;2023-06-22T09:20:46;25.40;99.90
4647;DHT22;2336;47.822;7.564;2023-06-22T09:23:12;25.40;99.90
4647;DHT22;2336;47.822;7.564;2023-06-22T09:25:40;25.40;99.90
4647;DHT22;2336;47.822;7.564;2023-06-22T09:28:08;25.50;99.90
4647;DHT22;2336;47.822;7.564;2023-06-22T09:30:34;25.60;99.90
4647;DHT22;2336;47.822;7.564;2023-06-22T09:33:01;25.60;99.90
4647;DHT22;2336;47.822;7.564;2023-06-22T09:35:28;25.60;99.90
4647;DHT22;2336;47.822;7.564;2023-06-22T09:37:55;25.70;99.90
4647;DHT22;2336;47.822;7.564;2023-06-22T09:40:21;25.70;99.90
4647;DHT22;2336;47.822;7.564;2023-06-22T09:42:48;25.70;99.90
4647;DHT22;2336;47.822;7.564;2023-06-22T09:45:16;25.60;99.90
4647;DHT22;2336;47.822;7.564;2023-06-22T09:47:43;25.60;99.90
4647;DHT22;2336;47.822;7.564;2023-06-22T09:50:10;25.60;99.90
4647;DHT22;2336;47.822;7.564;2023-06-22T09:52:37;25.70;99.90
4647;DHT22;2336;47.822;7.564;2023-06-22T09:55:04;25.80;99.90
4647;DHT22;2336;47.822;7.564;2023-06-22T09:57:31;26.10;99.90
4647;DHT22;2336;47.822;7.564;2023-06-22T09:59:58;26.30;99.90
4647;DHT22;2336;47.822;7.564;2023-06-22T10:02:26;26.40;99.90
4647;DHT22;2336;47.822;7.564;2023-06-22T10:04:53;26.70;99.90
4647;DHT22;2336;47.822;7.564;2023-06-22T10:07:19;26.80;99.90
4647;DHT22;2336;47.822;7.564;2023-06-22T10:09:46;26.90;99.90
4647;DHT22;2336;47.822;7.564;2023-06-22T10:12:13;26.90;99.90
4647;DHT22;2336;47.822;7.564;2023-06-22T10:14:39;26.90;99.90
4647;DHT22;2336;47.822;7.564;2023-06-22T10:17:06;26.90;99.90
4647;DHT22;2336;47.822;7.564;2023-06-22T10:19:35;26.80;99.90
4647;DHT22;2336;47.822;7.564;2023-06-22T10:22:03;26.70;99.90
4647;DHT22;2336;47.822;7.564;2023-06-22T10:24:30;26.60;99.90
4647;DHT22;2336;47.822;7.564;2023-06-22T10:26:57;26.40;99.90
4647;DHT22;2336;47.822;7.564;2023-06-22T10:29:24;26.40;99.90
4647;DHT22;2336;47.822;7.564;2023-06-22T10:31:50;26.40;99.90
4647;DHT22;2336;47.822;7.564;2023-06-22T10:34:17;26.30;99.90
4647;DHT22;2336;47.822;7.564;2023-06-22T10:36:45;26.40;99.90
4647;DHT22;2336;47.822;7.564;2023-06-22T10:39:14;26.50;99.90
4647;DHT22;2336;47.822;7.564;2023-06-22T10:41:40;26.60;99.90
4647;DHT22;2336;47.822;7.564;2023-06-22T10:44:07;26.80;99.90
4647;DHT22;2336;47.822;7.564;2023-06-22T10:46:34;26.90;99.90
4647;DHT22;2336;47.822;7.564;2023-06-22T10:49:00;27.00;99.90
4647;DHT22;2336;47.822;7.564;2023-06-22T10:51:27;27.00;99.90
4647;DHT22;2336;47.822;7.564;2023-06-22T10:53:55;27.10;99.90
4647;DHT22;2336;47.822;7.564;2023-06-22T10:56:22;27.30;99.90
4647;DHT22;2336;47.822;7.564;2023-06-22T10:58:49;27.30;99.90
4647;DHT22;2336;47.822;7.564;2023-06-22T11:01:15;27.40;99.90
4647;DHT22;2336;47.822;7.564;2023-06-22T11:03:43;27.40;99.90
4647;DHT22;2336;47.822;7.564;2023-06-22T11:06:09;27.30;99.90
4647;DHT22;2336;47.822;7.564;2023-06-22T11:08:36;27.20;99.90
4647;DHT22;2336;47.822;7.564;2023-06-22T11:11:04;27.10;99.90
4647;DHT22;2336;47.822;7.564;2023-06-22T11:13:31;27.00;99.90
4647;DHT22;2336;47.822;7.564;2023-06-22T11:15:57;27.00;99.90
4647;DHT22;2336;47.822;7.564;2023-06-22T11:18:24;27.00;99.90
4647;DHT22;2336;47.822;7.564;2023-06-22T11:20:51;27.00;99.90
4647;DHT22;2336;47.822;7.564;2023-06-22T11:23:18;27.10;99.90
4647;DHT22;2336;47.822;7.564;2023-06-22T11:25:45;27.20;99.90
4647;DHT22;2336;47.822;7.564;2023-06-22T11:28:13;27.10;99.90
4647;DHT22;2336;47.822;7.564;2023-06-22T11:30:40;27.20;99.90
4647;DHT22;2336;47.822;7.564;2023-06-22T11:33:07;27.10;99.90
4647;DHT22;2336;47.822;7.564;2023-06-22T11:35:33;27.20;99.90
4647;DHT22;2336;47.822;7.564;2023-06-22T11:38:00;27.20;99.90
4647;DHT22;2336;47.822;7.564;2023-06-22T11:40:28;27.30;99.90
4647;DHT22;2336;47.822;7.564;2023-06-22T11:42:55;27.30;99.90
4647;DHT22;2336;47.822;7.564;2023-06-22T11:45:23;27.30;99.90
4647;DHT22;2336;47.822;7.564;2023-06-22T11:47:50;27.30;99.90
4647;DHT22;2336;47.822;7.564;2023-06-22T11:50:17;27.40;99.90
4647;DHT22;2336;47.822;7.564;2023-06-22T11:52:44;27.30;99.90
4647;DHT22;2336;47.822;7.564;2023-06-22T11:55:10;27.30;99.90
4647;DHT22;2336;47.822;7.564;2023-06-22T11:57:38;27.30;99.90
4647;DHT22;2336;47.822;7.564;2023-06-22T12:00:06;27.10;99.90
4647;DHT22;2336;47.822;7.564;2023-06-22T12:02:42;27.10;99.90
4647;DHT22;2336;47.822;7.564;2023-06-22T12:05:10;27.20;99.90
4647;DHT22;2336;47.822;7.564;2023-06-22T12:07:37;27.10;99.90
4647;DHT22;2336;47.822;7.564;2023-06-22T12:10:05;27.10;99.90
4647;DHT22;2336;47.822;7.564;2023-06-22T12:12:32;27.00;99.90
4647;DHT22;2336;47.822;7.564;2023-06-22T12:14:59;27.00;99.90
4647;DHT22;2336;47.822;7.564;2023-06-22T12:17:29;27.00;99.90
4647;DHT22;2336;47.822;7.564;2023-06-22T12:19:58;26.90;99.90
4647;DHT22;2336;47.822;7.564;2023-06-22T12:22:24;26.90;99.90
4647;DHT22;2336;47.822;7.564;2023-06-22T12:24:51;26.90;99.90
4647;DHT22;2336;47.822;7.564;2023-06-22T12:27:18;26.90;99.90
4647;DHT22;2336;47.822;7.564;2023-06-22T12:29:45;26.90;99.90
4647;DHT22;2336;47.822;7.564;2023-06-22T12:32:13;27.00;99.90
4647;DHT22;2336;47.822;7.564;2023-06-22T12:34:40;26.90;99.90
4647;DHT22;2336;47.822;7.564;2023-06-22T12:37:08;26.90;99.90
4647;DHT22;2336;47.822;7.564;2023-06-22T12:39:35;27.00;99.90
4647;DHT22;2336;47.822;7.564;2023-06-22T12:42:01;26.90;99.90
4647;DHT22;2336;47.822;7.564;2023-06-22T12:44:28;26.90;99.90
4647;DHT22;2336;47.822;7.564;2023-06-22T12:46:55;26.90;99.90
4647;DHT22;2336;47.822;7.564;2023-06-22T12:49:22;26.80;99.90
4647;DHT22;2336;47.822;7.564;2023-06-22T12:51:48;26.80;99.90
4647;DHT22;2336;47.822;7.564;2023-06-22T12:54:16;26.90;99.90
4647;DHT22;2336;47.822;7.564;2023-06-22T12:56:43;26.80;99.90
4647;DHT22;2336;47.822;7.564;2023-06-22T12:59:10;26.80;99.90
4647;DHT22;2336;47.822;7.564;2023-06-22T13:01:37;26.80;99.90
4647;DHT22;2336;47.822;7.564;2023-06-22T13:04:04;26.80;99.90
4647;DHT22;2336;47.822;7.564;2023-06-22T13:06:30;26.90;99.90
4647;DHT22;2336;47.822;7.564;2023-06-22T13:08:57;27.00;99.90
4647;DHT22;2336;47.822;7.564;2023-06-22T13:11:25;27.00;99.90
4647;DHT22;2336;47.822;7.564;2023-06-22T13:13:52;27.00;99.90
4647;DHT22;2336;47.822;7.564;2023-06-22T13:16:18;27.10;99.90
4647;DHT22;2336;47.822;7.564;2023-06-22T13:18:45;27.10;99.90
4647;DHT22;2336;47.822;7.564;2023-06-22T13:21:12;27.10;99.90
4647;DHT22;2336;47.822;7.564;2023-06-22T13:23:39;27.10;99.90
4647;DHT22;2336;47.822;7.564;2023-06-22T13:26:07;27.10;99.90
4647;DHT22;2336;47.822;7.564;2023-06-22T13:28:35;27.10;99.90
4647;DHT22;2336;47.822;7.564;2023-06-22T13:31:01;27.00;99.90
4647;DHT22;2336;47.822;7.564;2023-06-22T13:33:28;26.70;99.90
4647;DHT22;2336;47.822;7.564;2023-06-22T13:35:55;26.50;99.90
4647;DHT22;2336;47.822;7.564;2023-06-22T13:38:22;26.40;99.90
4647;DHT22;2336;47.822;7.564;2023-06-22T13:40:48;26.40;99.90
4647;DHT22;2336;47.822;7.564;2023-06-22T13:43:16;26.40;99.90
4647;DHT22;2336;47.822;7.564;2023-06-22T13:45:44;26.60;99.90
4647;DHT22;2336;47.822;7.564;2023-06-22T13:48:11;26.80;99.90
4647;DHT22;2336;47.822;7.564;2023-06-22T13:50:37;26.90;99.90
4647;DHT22;2336;47.822;7.564;2023-06-22T13:53:04;27.00;99.90
4647;DHT22;2336;47.822;7.564;2023-06-22T13:55:31;27.10;99.90
4647;DHT22;2336;47.822;7.564;2023-06-22T13:57:57;27.10;99.90
4647;DHT22;2336;47.822;7.564;2023-06-22T14:00:24;27.00;99.90
4647;DHT22;2336;47.822;7.564;2023-06-22T14:02:52;27.00;99.90
4647;DHT22;2336;47.822;7.564;2023-06-22T14:05:19;27.00;99.90
4647;DHT22;2336;47.822;7.564;2023-06-22T14:07:45;27.00;99.90
4647;DHT22;2336;47.822;7.564;2023-06-22T14:10:12;27.10;99.90
4647;DHT22;2336;47.822;7.564;2023-06-22T14:12:39;27.10;99.90
4647;DHT22;2336;47.822;7.564;2023-06-22T14:15:06;27.30;99.90
4647;DHT22;2336;47.822;7.564;2023-06-22T14:17:33;27.40;99.90
4647;DHT22;2336;47.822;7.564;2023-06-22T14:20:01;27.50;99.90
4647;DHT22;2336;47.822;7.564;2023-06-22T14:22:28;27.60;99.90
4647;DHT22;2336;47.822;7.564;2023-06-22T14:24:55;27.90;99.90
4647;DHT22;2336;47.822;7.564;2023-06-22T14:27:23;28.10;99.90
4647;DHT22;2336;47.822;7.564;2023-06-22T14:29:50;28.30;99.90
4647;DHT22;2336;47.822;7.564;2023-06-22T14:32:16;28.30;99.90
4647;DHT22;2336;47.822;7.564;2023-06-22T14:34:43;28.00;99.90
4647;DHT22;2336;47.822;7.564;2023-06-22T14:37:11;27.90;99.90
4647;DHT22;2336;47.822;7.564;2023-06-22T14:39:38;27.80;99.90
4647;DHT22;2336;47.822;7.564;2023-06-22T14:42:06;27.70;99.90
4647;DHT22;2336;47.822;7.564;2023-06-22T14:44:32;27.70;99.90
4647;DHT22;2336;47.822;7.564;2023-06-22T14:46:59;27.70;99.90
4647;DHT22;2336;47.822;7.564;2023-06-22T14:49:26;27.90;99.90
4647;DHT22;2336;47.822;7.564;2023-06-22T14:51:53;28.10;99.90
4647;DHT22;2336;47.822;7.564;2023-06-22T14:54:21;28.30;99.90
4647;DHT22;2336;47.822;7.564;2023-06-22T14:56:48;28.40;99.90
4647;DHT22;2336;47.822;7.564;2023-06-22T14:59:15;28.40;99.90
4647;DHT22;2336;47.822;7.564;2023-06-22T15:01:41;28.40;99.90
4647;DHT22;2336;47.822;7.564;2023-06-22T15:04:08;28.40;99.90
4647;DHT22;2336;47.822;7.564;2023-06-22T15:06:35;28.30;99.90
4647;DHT22;2336;47.822;7.564;2023-06-22T15:09:01;28.30;99.90
4647;DHT22;2336;47.822;7.564;2023-06-22T15:11:29;28.30;99.90
4647;DHT22;2336;47.822;7.564;2023-06-22T15:13:58;28.20;99.90
4647;DHT22;2336;47.822;7.564;2023-06-22T15:16:25;27.90;99.90
4647;DHT22;2336;47.822;7.564;2023-06-22T15:18:52;27.90;99.90
4647;DHT22;2336;47.822;7.564;2023-06-22T15:21:19;27.80;99.90
4647;DHT22;2336;47.822;7.564;2023-06-22T15:23:46;27.60;99.90
4647;DHT22;2336;47.822;7.564;2023-06-22T15:26:12;27.60;99.90
4647;DHT22;2336;47.822;7.564;2023-06-22T15:28:40;27.50;99.90
4647;DHT22;2336;47.822;7.564;2023-06-22T15:31:07;27.40;99.90
4647;DHT22;2336;47.822;7.564;2023-06-22T15:33:34;27.40;99.90
4647;DHT22;2336;47.822;7.564;2023-06-22T15:36:02;27.40;99.90
4647;DHT22;2336;47.822;7.564;2023-06-22T15:38:31;27.30;99.90
4647;DHT22;2336;47.822;7.564;2023-06-22T15:40:58;27.30;99.90
4647;DHT22;2336;47.822;7.564;2023-06-22T15:43:25;27.30;99.90
4647;DHT22;2336;47.822;7.564;2023-06-22T15:45:53;27.40;99.90
4647;DHT22;2336;47.822;7.564;2023-06-22T15:48:20;27.50;99.90
4647;DHT22;2336;47.822;7.564;2023-06-22T15:50:46;27.50;99.90
4647;DHT22;2336;47.822;7.564;2023-06-22T15:53:14;27.40;99.90
4647;DHT22;2336;47.822;7.564;2023-06-22T15:55:40;27.40;99.90
4647;DHT22;2336;47.822;7.564;2023-06-22T15:58:07;27.30;99.90
4647;DHT22;2336;47.822;7.564;2023-06-22T16:00:34;27.40;99.90
4647;DHT22;2336;47.822;7.564;2023-06-22T16:03:02;27.40;99.90